FW1977 Weather Reports


time (UTC)temp
C
wind
direction
speed
KPH
gust
KPH
rain 1hr
cm
rain 24hr
cm
rain mn
cm
humidity
%
barometer
mb
20260503184544 17 226 20.9 45.1 0.00 0.03 0.03 53 1004.4
20260503183042 17 241 25.7 43.5 0.00 0.03 0.03 53 1004.8
20260503181538 16 235 12.9 40.2 0.00 0.03 0.03 56 1004.9
20260503180035 16 226 32.2 43.5 0.03 0.03 0.03 57 1005.2
20260503174534 16 257 20.9 43.5 0.03 0.03 0.03 60 1005.4
20260503173047 16 263 17.7 35.4 0.03 0.03 0.03 59 1005.7
20260503171535 15 243 27.4 43.5 0.03 0.03 0.03 60 1005.9
20260503081522 8 264 0.0 3.2 0.00 0.00 0.00 59 1009.7
20260503071510 7 247 0.0 11.3 0.00 0.00 0.00 64 1010.0
20260503060106 4 219 0.0 3.2 0.00 0.00 0.00 77 1010.8
20260503054547 3 261 0.0 0.0 0.00 0.00 0.00 81 1011.0
20260503053046 3 223 0.0 0.0 0.00 0.00 0.00 82 1011.2
20260503051541 3 220 0.0 1.6 0.00 0.00 0.00 83 1011.3
20260503050039 3 209 0.0 1.6 0.00 0.00 0.00 84 1011.4
20260503044538 3 243 0.0 1.6 0.00 0.00 0.00 85 1011.4
20260503043036 3 205 0.0 1.6 0.00 0.00 0.00 84 1011.6
20260503041535 3 210 0.0 1.6 0.00 0.00 0.00 84 1011.9
20260503040034 3 182 0.0 3.2 0.00 0.00 0.00 82 1012.0
20260503034531 3 212 0.0 6.4 0.00 0.00 0.00 81 1012.2
20260503033048 3 193 0.0 4.8 0.00 0.00 0.00 80 1012.5
20260503031534 3 212 0.0 8.0 0.00 0.00 0.00 78 1012.7
20260503030026 4 206 3.2 16.1 0.00 0.00 0.00 77 1012.9
20260503024524 4 193 4.8 14.5 0.00 0.00 0.00 76 1013.1
20260503023040 4 199 3.2 12.9 0.00 0.00 0.00 74 1013.1
20260503021521 5 191 0.0 11.3 0.00 0.00 0.00 73 1013.2
20260503020021 5 217 3.2 19.3 0.00 0.00 0.00 72 1013.2
20260503014520 5 160 9.7 17.7 0.00 0.00 0.00 71 1013.2
20260503013019 5 179 6.4 20.9 0.00 0.00 0.00 70 1013.1
20260503011518 5 179 4.8 17.7 0.00 0.00 0.00 70 1013.2
20260503010024 5 160 9.7 22.5 0.00 0.00 0.00 69 1013.3
20260503004515 5 154 11.3 22.5 0.00 0.00 0.00 68 1013.3
20260503003015 6 155 8.0 27.4 0.00 0.00 0.00 65 1013.4
20260503001513 6 146 14.5 27.4 0.00 0.00 0.00 62 1013.5
20260503000016 7 183 16.1 37.0 0.00 0.00 0.00 60 1013.7
20260502234510 7 155 16.1 32.2 0.00 0.00 0.00 57 1013.7
20260502233008 7 165 16.1 27.4 0.00 0.00 0.00 56 1013.9
20260502231508 7 157 9.7 27.4 0.00 0.00 0.00 57 1014.0
20260502230005 7 179 17.7 32.2 0.00 0.00 0.00 56 1014.2
20260502224503 8 193 20.9 30.6 0.00 0.00 0.00 55 1014.3
20260502223003 8 152 17.7 29.0 0.00 0.00 0.00 55 1014.4
20260502221500 8 153 12.9 25.7 0.00 0.00 0.00 56 1014.5
20260502214559 8 143 19.3 30.6 0.00 0.00 0.00 52 1014.6
20260502213057 8 146 20.9 29.0 0.00 0.00 0.00 55 1014.8
20260502211558 8 166 17.7 30.6 0.00 0.00 0.00 55 1014.8
20260502210055 8 148 17.7 30.6 0.00 0.00 0.00 55 1014.9
20260502204603 8 145 16.1 27.4 0.00 0.00 0.00 55 1015.2
20260502203053 9 141 12.9 30.6 0.00 0.00 0.00 55 1015.1
20260502201551 9 134 11.3 27.4 0.00 0.00 0.00 53 1015.4
20260502200054 9 146 16.1 22.5 0.00 0.00 0.00 52 1015.6
20260502194548 8 129 11.3 22.5 0.00 0.00 0.00 54 1015.7
20260502193047 8 112 4.8 20.9 0.00 0.00 0.00 57 1016.1
20260502191556 9 130 8.0 17.7 0.00 0.00 0.00 55 1016.3
20260502190044 10 121 12.9 20.9 0.00 0.00 0.00 53 1016.3